createdAt,value
2023-03-20T00:00:20.785Z,101762.41
2023-03-20T00:02:50.587Z,101769.44
2023-03-20T00:05:25.677Z,101777.25
2023-03-20T00:07:55.720Z,101771.81
2023-03-20T00:10:29.942Z,101772.75
2023-03-20T00:13:00.416Z,101773.44
2023-03-20T00:15:34.474Z,101773.28
2023-03-20T00:18:04.408Z,101776.56
2023-03-20T00:20:37.021Z,101767.72
2023-03-20T00:23:07.065Z,101771.06
2023-03-20T00:25:37.156Z,101777.19
2023-03-20T00:28:15.204Z,101784.19
2023-03-20T00:30:46.531Z,101787.78
2023-03-20T00:33:17.166Z,101783.44
2023-03-20T00:35:49.757Z,101786.06
2023-03-20T00:38:19.511Z,101778.09
2023-03-20T00:40:49.280Z,101780.72
2023-03-20T00:43:19.098Z,101784.34
2023-03-20T00:45:49.557Z,101792.31
2023-03-20T00:48:20.931Z,101787.13
2023-03-20T00:50:53.667Z,101790.66
2023-03-20T00:53:23.411Z,101792.31
2023-03-20T00:55:53.205Z,101790.47
2023-03-20T00:58:23.821Z,101793.03
2023-03-20T01:00:53.789Z,101792.09
2023-03-20T01:03:25.363Z,101797.34
2023-03-20T01:05:57.710Z,101793.94
2023-03-20T01:08:31.018Z,101794.72
2023-03-20T01:11:01.539Z,101793.03
2023-03-20T01:13:33.179Z,101793.09
2023-03-20T01:16:02.979Z,101781.63
2023-03-20T01:18:38.203Z,101793.09
2023-03-20T01:21:12.349Z,101778.38
2023-03-20T01:23:42.167Z,101776.63
2023-03-20T01:26:24.763Z,101768.88
2023-03-20T01:28:54.788Z,101770.66
2023-03-20T01:31:24.670Z,101777.78
2023-03-20T01:33:54.603Z,101782.31
2023-03-20T01:36:27.398Z,101774.53
2023-03-20T01:38:59.896Z,101782.41
2023-03-20T01:41:30.655Z,101779.88
2023-03-20T01:44:01.477Z,101766.94
2023-03-20T01:46:33.541Z,101763.41
2023-03-20T01:49:10.896Z,101753.81
2023-03-20T01:51:43.247Z,101765.19
2023-03-20T01:54:18.573Z,101760.06
2023-03-20T01:56:53.016Z,101762.69
2023-03-20T01:59:25.368Z,101758.22
2023-03-20T02:01:57.863Z,101752.09
2023-03-20T02:04:32.617Z,101746.75
2023-03-20T02:07:06.506Z,101736.25
2023-03-20T02:09:36.331Z,101738.81
2023-03-20T02:12:07.804Z,101734.56
2023-03-20T02:14:39.124Z,101727.56
2023-03-20T02:17:11.736Z,101730.19
2023-03-20T02:19:51.755Z,101727.63
2023-03-20T02:22:44.587Z,101718.97
2023-03-20T02:25:47.833Z,101717.34
2023-03-20T02:28:50.285Z,101721.91
2023-03-20T02:31:58.389Z,101715.88
2023-03-20T02:34:59.831Z,101716.81
2023-03-20T02:38:06.538Z,101705.44
2023-03-20T02:40:46.089Z,101709.69
2023-03-20T02:43:24.421Z,101703.47
2023-03-20T02:46:00.624Z,101695.50
2023-03-20T02:48:41.517Z,101698.03
2023-03-20T02:51:19.037Z,101693.63
2023-03-20T02:53:56.687Z,101696.16
2023-03-20T02:56:35.096Z,101686.41
2023-03-20T02:59:17.625Z,101692.38
2023-03-20T03:01:54.921Z,101690.50
2023-03-20T03:04:29.108Z,101682.47
2023-03-20T03:07:00.439Z,101681.56
2023-03-20T03:09:34.226Z,101683.38
2023-03-20T03:12:13.265Z,101677.22
2023-03-20T03:14:46.722Z,101670.25
2023-03-20T03:17:18.057Z,101666.00
2023-03-20T03:19:52.624Z,101656.41
2023-03-20T03:22:24.497Z,101652.16
2023-03-20T03:24:56.096Z,101654.91
2023-03-20T03:27:32.457Z,101659.44
2023-03-20T03:30:04.985Z,101668.22
2023-03-20T03:32:40.740Z,101655.13
2023-03-20T03:35:17.987Z,101642.94
2023-03-20T03:37:57.239Z,101644.69
2023-03-20T03:40:37.210Z,101638.53
2023-03-20T03:43:15.553Z,101639.38
2023-03-20T03:45:51.183Z,101633.28
2023-03-20T03:48:24.170Z,101634.34
2023-03-20T03:50:59.495Z,101632.81
2023-03-20T03:53:37.122Z,101629.34
2023-03-20T03:56:11.659Z,101628.53
2023-03-20T03:58:47.687Z,101636.56
2023-03-20T04:01:20.051Z,101621.72
2023-03-20T04:03:54.040Z,101612.22
2023-03-20T04:06:24.109Z,101609.66
2023-03-20T04:08:53.878Z,101610.56
2023-03-20T04:11:25.742Z,101619.34
2023-03-20T04:13:58.732Z,101613.19
2023-03-20T04:16:29.190Z,101615.72
2023-03-20T04:18:58.996Z,101610.38
2023-03-20T04:21:28.852Z,101611.31
2023-03-20T04:23:58.616Z,101597.13
2023-03-20T04:26:28.395Z,101605.09
2023-03-20T04:29:01.614Z,101604.09
2023-03-20T04:31:31.467Z,101613.59
2023-03-20T04:34:02.362Z,101602.06
2023-03-20T04:36:34.215Z,101604.69
2023-03-20T04:39:03.966Z,101597.69
2023-03-20T04:41:33.763Z,101596.81
2023-03-20T04:44:06.348Z,101606.41
2023-03-20T04:46:36.236Z,101606.41
2023-03-20T04:49:06.011Z,101605.31
2023-03-20T04:51:35.761Z,101607.06
2023-03-20T04:54:05.542Z,101616.72
2023-03-20T04:56:35.285Z,101622.88
2023-03-20T04:59:07.679Z,101621.97
2023-03-20T05:01:37.499Z,101630.75
2023-03-20T05:04:07.540Z,101634.28
2023-03-20T05:06:38.568Z,101622.06
2023-03-20T05:09:09.351Z,101628.19
2023-03-20T05:11:39.133Z,101617.69
2023-03-20T05:14:12.191Z,101610.66
2023-03-20T05:16:42.303Z,101616.81
2023-03-20T05:19:13.664Z,101615.97
2023-03-20T05:21:43.404Z,101612.47
2023-03-20T05:24:13.154Z,101612.41
2023-03-20T05:26:42.938Z,101622.06
2023-03-20T05:29:15.619Z,101626.41
2023-03-20T05:31:45.532Z,101629.03
2023-03-20T05:34:15.568Z,101632.56
2023-03-20T05:36:45.710Z,101630.66
2023-03-20T05:39:15.480Z,101635.19
2023-03-20T05:41:45.936Z,101632.47
2023-03-20T05:44:22.292Z,101639.53
2023-03-20T05:46:52.037Z,101636.81
2023-03-20T05:49:21.777Z,101636.81
2023-03-20T05:51:51.658Z,101624.53
2023-03-20T05:54:29.327Z,101626.25
2023-03-20T05:57:02.170Z,101622.63
2023-03-20T05:59:40.048Z,101619.88
2023-03-20T06:02:10.275Z,101629.44
2023-03-20T06:04:40.412Z,101623.22
2023-03-20T06:07:10.572Z,101630.25
2023-03-20T06:09:40.577Z,101641.66
2023-03-20T06:12:10.995Z,101649.63
2023-03-20T06:14:43.363Z,101639.03
2023-03-20T06:17:13.285Z,101643.38
2023-03-20T06:19:43.079Z,101637.25
2023-03-20T06:22:12.908Z,101639.75
2023-03-20T06:24:43.402Z,101640.66
2023-03-20T06:27:13.208Z,101639.84
2023-03-20T06:29:49.372Z,101639.03
2023-03-20T06:32:19.377Z,101638.28
2023-03-20T06:34:49.216Z,101641.00
2023-03-20T06:37:18.966Z,101649.78
2023-03-20T06:39:54.716Z,101652.50
2023-03-20T06:42:24.526Z,101655.91
2023-03-20T06:44:56.875Z,101650.75
2023-03-20T06:47:27.233Z,101643.78
2023-03-20T06:49:57.777Z,101657.78
2023-03-20T06:52:27.592Z,101660.34
2023-03-20T06:54:58.031Z,101657.78
2023-03-20T06:57:29.387Z,101663.03
2023-03-20T07:00:01.880Z,101664.03
2023-03-20T07:02:32.052Z,101657.88
2023-03-20T07:05:01.922Z,101657.94
2023-03-20T07:07:31.838Z,101659.03
2023-03-20T07:10:01.726Z,101662.81
2023-03-20T07:12:31.559Z,101659.34
2023-03-20T07:15:03.910Z,101659.50
2023-03-20T07:17:33.666Z,101662.31
2023-03-20T07:20:03.453Z,101660.84
2023-03-20T07:22:36.600Z,101670.59
2023-03-20T07:25:07.031Z,101670.75
2023-03-20T07:27:36.800Z,101680.50
2023-03-20T07:30:10.556Z,101672.78
2023-03-20T07:32:40.981Z,101678.03
2023-03-20T07:35:12.286Z,101685.91
2023-03-20T07:37:42.143Z,101679.75
2023-03-20T07:40:15.760Z,101691.09
2023-03-20T07:42:48.659Z,101686.00
2023-03-20T07:45:21.478Z,101686.00
2023-03-20T07:47:51.318Z,101683.44
2023-03-20T07:50:21.363Z,101682.69
2023-03-20T07:52:51.421Z,101689.03
2023-03-20T07:55:21.228Z,101691.72
2023-03-20T07:57:54.167Z,101690.81
2023-03-20T08:00:28.226Z,101677.69
2023-03-20T08:02:59.535Z,101685.66
2023-03-20T08:05:29.583Z,101670.78
2023-03-20T08:07:59.558Z,101672.59
2023-03-20T08:10:29.548Z,101674.31
2023-03-20T08:12:59.323Z,101672.53
2023-03-20T08:15:31.827Z,101681.19
2023-03-20T08:18:01.675Z,101679.41
2023-03-20T08:20:31.885Z,101669.00
2023-03-20T08:23:01.674Z,101671.69
2023-03-20T08:25:33.873Z,101676.13
2023-03-20T08:28:04.192Z,101678.81
2023-03-20T08:30:37.365Z,101665.69
2023-03-20T08:33:08.062Z,101669.31
2023-03-20T08:35:38.437Z,101672.03
2023-03-20T08:38:08.431Z,101674.56
2023-03-20T08:40:38.604Z,101672.09
2023-03-20T08:43:08.435Z,101666.91
2023-03-20T08:45:45.564Z,101672.25
2023-03-20T08:48:16.501Z,101667.97
2023-03-20T08:50:46.483Z,101671.66
2023-03-20T08:53:16.280Z,101670.03
2023-03-20T08:55:51.829Z,101662.34
2023-03-20T08:58:29.320Z,101658.09
2023-03-20T09:01:07.145Z,101652.03
2023-03-20T09:03:37.350Z,101656.44
2023-03-20T09:06:09.703Z,101659.97
2023-03-20T09:08:39.630Z,101652.19
2023-03-20T09:11:10.096Z,101656.75
2023-03-20T09:13:39.891Z,101655.19
2023-03-20T09:16:15.013Z,101646.56
2023-03-20T09:18:46.563Z,101647.53
2023-03-20T09:21:16.595Z,101646.78
2023-03-20T09:23:47.555Z,101652.28
2023-03-20T09:26:17.371Z,101658.66
2023-03-20T09:28:47.147Z,101648.34
2023-03-20T09:31:19.757Z,101657.34
2023-03-20T09:33:49.511Z,101654.19
2023-03-20T09:36:19.842Z,101659.91
2023-03-20T09:38:50.996Z,101654.22
2023-03-20T09:41:27.937Z,101649.28
2023-03-20T09:44:11.914Z,101659.41
2023-03-20T09:47:18.882Z,101659.84
2023-03-20T09:50:02.026Z,101661.91
2023-03-20T09:52:35.356Z,101642.19
2023-03-20T09:55:09.603Z,101659.16
2023-03-20T09:57:43.982Z,101654.03
2023-03-20T10:00:19.652Z,101659.50
2023-03-20T10:03:00.473Z,101660.69
2023-03-20T10:05:32.611Z,101656.53
2023-03-20T10:08:05.767Z,101651.53
2023-03-20T10:10:45.154Z,101651.88
2023-03-20T10:13:38.627Z,101663.59
2023-03-20T10:16:17.883Z,101660.19
2023-03-20T10:18:54.346Z,101657.81
2023-03-20T10:21:36.854Z,101659.69
2023-03-20T10:24:10.036Z,101650.13
2023-03-20T10:26:41.671Z,101643.13
2023-03-20T10:29:30.681Z,101642.34
2023-03-20T10:32:09.084Z,101647.06
2023-03-20T10:34:56.623Z,101649.91
2023-03-20T10:37:42.808Z,101651.75
2023-03-20T10:40:29.463Z,101657.16
2023-03-20T10:43:03.307Z,101647.47
2023-03-20T10:45:39.388Z,101651.75
2023-03-20T10:48:18.840Z,101648.16
2023-03-20T10:50:54.808Z,101649.97
2023-03-20T10:53:35.301Z,101643.94
2023-03-20T10:56:11.586Z,101645.53
2023-03-20T10:58:44.499Z,101648.03
2023-03-20T11:01:14.431Z,101643.31
2023-03-20T11:03:44.421Z,101645.75
2023-03-20T11:06:22.405Z,101655.19
2023-03-20T11:08:54.990Z,101650.56
2023-03-20T11:11:26.680Z,101651.31
2023-03-20T11:13:57.230Z,101644.19
2023-03-20T11:16:29.246Z,101653.88
2023-03-20T11:18:59.015Z,101643.44
2023-03-20T11:21:34.536Z,101649.72
2023-03-20T11:24:04.861Z,101642.78
2023-03-20T11:26:45.190Z,101636.72
2023-03-20T11:29:26.901Z,101643.88
2023-03-20T11:31:56.913Z,101640.56
2023-03-20T11:34:28.829Z,101631.81
2023-03-20T11:37:10.147Z,101641.34
2023-03-20T11:39:42.300Z,101636.72
2023-03-20T11:42:26.735Z,101639.91
2023-03-20T11:45:01.436Z,101640.16
2023-03-20T11:47:37.724Z,101637.16
2023-03-20T11:50:09.396Z,101642.19
2023-03-20T11:52:43.121Z,101636.81
2023-03-20T11:55:27.953Z,101638.53
2023-03-20T11:58:01.136Z,101638.25
2023-03-20T12:00:39.033Z,101638.09
2023-03-20T12:03:42.284Z,101637.81
2023-03-20T12:06:18.291Z,101628.81
2023-03-20T12:08:55.330Z,101628.69
2023-03-20T12:11:41.476Z,101629.56
2023-03-20T12:14:20.212Z,101614.63
2023-03-20T12:16:52.762Z,101627.88
2023-03-20T12:19:29.376Z,101617.38
2023-03-20T12:22:06.246Z,101621.75
2023-03-20T12:24:44.774Z,101619.75
2023-03-20T12:27:24.109Z,101626.44
2023-03-20T12:30:01.191Z,101624.44
2023-03-20T12:32:36.385Z,101622.50
2023-03-20T12:35:16.056Z,101615.31
2023-03-20T12:37:46.592Z,101615.22
2023-03-20T12:40:23.263Z,101620.47
2023-03-20T12:43:05.271Z,101623.97
2023-03-20T12:45:44.130Z,101619.50
2023-03-20T12:48:34.314Z,101621.25
2023-03-20T12:51:09.994Z,101620.22
2023-03-20T12:53:52.372Z,101618.25
2023-03-20T12:56:39.354Z,101613.63
2023-03-20T12:59:24.876Z,101610.06
2023-03-20T13:01:59.526Z,101614.34
2023-03-20T13:04:52.898Z,101604.56
2023-03-20T13:07:24.445Z,101608.00
2023-03-20T13:10:18.155Z,101607.13
2023-03-20T13:13:03.069Z,101603.69
2023-03-20T13:15:44.081Z,101595.78
2023-03-20T13:18:23.744Z,101594.06
2023-03-20T13:20:55.428Z,101588.81
2023-03-20T13:23:33.755Z,101580.06
2023-03-20T13:26:28.639Z,101589.69
2023-03-20T13:29:08.813Z,101592.25
2023-03-20T13:32:00.775Z,101588.56
2023-03-20T13:34:38.682Z,101589.38
2023-03-20T13:37:23.925Z,101579.63
2023-03-20T13:40:06.122Z,101574.22
2023-03-20T13:42:43.944Z,101577.63
2023-03-20T13:45:31.930Z,101577.84
2023-03-20T13:48:06.291Z,101578.59
2023-03-20T13:50:45.496Z,101572.50
2023-03-20T13:53:32.801Z,101569.88
2023-03-20T13:56:11.498Z,101562.81
2023-03-20T13:59:01.266Z,101572.59
2023-03-20T14:01:44.052Z,101562.06
2023-03-20T14:04:19.025Z,101560.34
2023-03-20T14:06:55.810Z,101559.53
2023-03-20T14:09:32.339Z,101556.81
2023-03-20T14:12:05.707Z,101564.63
2023-03-20T14:14:43.317Z,101555.78
2023-03-20T14:17:23.293Z,101553.97
2023-03-20T14:19:54.406Z,101552.41
2023-03-20T14:22:27.759Z,101555.97
2023-03-20T14:25:00.895Z,101555.06
2023-03-20T14:27:43.671Z,101544.69
2023-03-20T14:30:45.994Z,101541.13
2023-03-20T14:33:34.390Z,101534.19
2023-03-20T14:36:44.449Z,101524.50
2023-03-20T14:39:22.690Z,101525.34
2023-03-20T14:42:03.304Z,101537.78
2023-03-20T14:44:49.312Z,101535.03
2023-03-20T14:47:28.633Z,101535.78
2023-03-20T14:50:11.662Z,101536.69
2023-03-20T14:52:55.917Z,101535.03
2023-03-20T14:55:34.708Z,101530.66
2023-03-20T14:58:29.713Z,101539.41
2023-03-20T15:01:06.213Z,101547.13
2023-03-20T15:03:37.854Z,101539.25
2023-03-20T15:06:12.186Z,101548.03
2023-03-20T15:08:48.611Z,101551.66
2023-03-20T15:11:18.869Z,101544.56
2023-03-20T15:13:50.822Z,101531.41
2023-03-20T15:16:20.668Z,101540.19
2023-03-20T15:18:54.698Z,101536.63
2023-03-20T15:21:35.340Z,101537.44
2023-03-20T15:24:05.393Z,101532.19
2023-03-20T15:26:36.801Z,101528.66
2023-03-20T15:29:09.769Z,101531.38
2023-03-20T15:31:42.136Z,101521.75
2023-03-20T15:34:17.791Z,101524.38
2023-03-20T15:36:50.931Z,101519.94
2023-03-20T15:39:22.856Z,101524.28
2023-03-20T15:41:56.156Z,101512.03
2023-03-20T15:44:27.469Z,101520.09
2023-03-20T15:47:02.487Z,101512.28
2023-03-20T15:49:35.249Z,101514.00
2023-03-20T15:52:16.909Z,101510.53
2023-03-20T15:54:46.844Z,101508.84
2023-03-20T15:57:25.593Z,101508.00
2023-03-20T15:59:56.499Z,101509.72
2023-03-20T16:02:29.595Z,101513.16
2023-03-20T16:04:59.457Z,101510.47
2023-03-20T16:07:33.912Z,101506.19
2023-03-20T16:10:04.004Z,101504.38
2023-03-20T16:12:33.833Z,101506.19
2023-03-20T16:15:05.038Z,101504.47
2023-03-20T16:17:36.563Z,101499.28
2023-03-20T16:20:06.745Z,101498.38
2023-03-20T16:22:39.934Z,101501.84
2023-03-20T16:25:17.014Z,101507.09
2023-03-20T16:27:52.078Z,101505.44
2023-03-20T16:30:25.607Z,101507.19
2023-03-20T16:33:03.152Z,101501.00
2023-03-20T16:35:39.952Z,101509.84
2023-03-20T16:38:27.824Z,101510.84
2023-03-20T16:40:58.698Z,101508.13
2023-03-20T16:43:30.791Z,101507.22
2023-03-20T16:46:07.300Z,101511.69
2023-03-20T16:48:39.777Z,101502.88
2023-03-20T16:51:19.527Z,101510.97
2023-03-20T16:53:54.419Z,101509.19
2023-03-20T16:56:28.838Z,101510.97
2023-03-20T16:59:02.281Z,101509.19
2023-03-20T17:01:33.298Z,101509.19
2023-03-20T17:04:17.594Z,101511.81
2023-03-20T17:06:51.298Z,101508.22
2023-03-20T17:09:27.170Z,101502.94
2023-03-20T17:12:04.090Z,101502.09
2023-03-20T17:14:34.867Z,101507.38
2023-03-20T17:17:04.930Z,101509.19
2023-03-20T17:19:35.784Z,101508.28
2023-03-20T17:22:06.693Z,101509.22
2023-03-20T17:24:39.073Z,101517.19
2023-03-20T17:27:08.923Z,101509.31
2023-03-20T17:29:38.719Z,101508.41
2023-03-20T17:32:12.924Z,101514.56
2023-03-20T17:34:43.050Z,101513.69
2023-03-20T17:37:18.641Z,101518.94
2023-03-20T17:39:51.024Z,101524.19
2023-03-20T17:42:22.444Z,101527.63
2023-03-20T17:44:52.202Z,101527.72
2023-03-20T17:47:24.349Z,101526.75
2023-03-20T17:49:54.999Z,101525.97
2023-03-20T17:52:26.087Z,101520.66
2023-03-20T17:54:58.488Z,101516.34
2023-03-20T17:57:37.220Z,101520.88
2023-03-20T18:00:08.916Z,101521.81
2023-03-20T18:02:44.039Z,101525.22
2023-03-20T18:05:13.907Z,101531.41
2023-03-20T18:07:44.430Z,101525.38
2023-03-20T18:10:23.881Z,101524.56
2023-03-20T18:12:56.651Z,101529.00
2023-03-20T18:15:26.468Z,101524.56
2023-03-20T18:17:56.265Z,101521.94
2023-03-20T18:20:29.888Z,101522.84
2023-03-20T18:22:59.723Z,101527.25
2023-03-20T18:25:33.691Z,101525.56
2023-03-20T18:28:05.114Z,101528.19
2023-03-20T18:30:38.125Z,101522.00
2023-03-20T18:33:08.870Z,101522.97
2023-03-20T18:35:39.229Z,101526.44
2023-03-20T18:38:09.175Z,101519.38
2023-03-20T18:40:42.718Z,101518.56
2023-03-20T18:43:13.156Z,101525.56
2023-03-20T18:45:42.963Z,101528.19
2023-03-20T18:48:15.214Z,101527.22
2023-03-20T18:50:45.132Z,101521.94
2023-03-20T18:53:14.908Z,101523.81
2023-03-20T18:55:47.390Z,101520.34
2023-03-20T18:58:24.572Z,101523.88
2023-03-20T19:00:55.157Z,101516.94
2023-03-20T19:03:28.702Z,101518.69
2023-03-20T19:06:01.158Z,101523.09
2023-03-20T19:08:35.708Z,101527.47
2023-03-20T19:11:14.931Z,101525.81
2023-03-20T19:13:47.437Z,101520.47
2023-03-20T19:16:24.615Z,101522.28
2023-03-20T19:18:55.071Z,101524.94
2023-03-20T19:21:26.554Z,101518.78
2023-03-20T19:23:57.062Z,101517.84
2023-03-20T19:26:30.801Z,101524.03
2023-03-20T19:29:03.049Z,101523.09
2023-03-20T19:31:32.869Z,101523.09
2023-03-20T19:34:03.169Z,101516.94
2023-03-20T19:36:34.618Z,101515.22
2023-03-20T19:39:06.728Z,101516.16
2023-03-20T19:41:39.263Z,101516.16
2023-03-20T19:44:09.096Z,101513.50
2023-03-20T19:46:41.168Z,101509.16
2023-03-20T19:49:20.040Z,101509.16
2023-03-20T19:51:50.891Z,101517.09
2023-03-20T19:54:20.793Z,101508.31
2023-03-20T19:56:53.152Z,101510.13
2023-03-20T19:59:25.918Z,101505.75
2023-03-20T20:01:55.933Z,101504.03
2023-03-20T20:04:25.915Z,101504.09
2023-03-20T20:07:19.514Z,101502.41
2023-03-20T20:09:45.754Z,101501.53
2023-03-20T20:12:18.185Z,101495.44
2023-03-20T20:14:48.031Z,101506.88
2023-03-20T20:17:17.790Z,101499.78
2023-03-20T20:19:47.547Z,101500.53
2023-03-20T20:22:25.388Z,101496.22
2023-03-20T20:24:56.192Z,101497.03
2023-03-20T20:27:29.281Z,101491.84
2023-03-20T20:29:59.097Z,101501.59
2023-03-20T20:32:31.054Z,101499.06
2023-03-20T20:38:33.482Z,101492.75
2023-03-20T20:40:44.311Z,101491.91
2023-03-20T20:43:39.057Z,101490.25
2023-03-20T20:46:06.639Z,101497.31
2023-03-20T20:48:37.740Z,101492.94
2023-03-20T20:51:07.880Z,101491.22
2023-03-20T20:53:37.644Z,101487.69
2023-03-20T20:56:09.803Z,101499.94
2023-03-20T20:58:44.200Z,101499.94
2023-03-20T21:01:13.992Z,101493.72
2023-03-20T21:03:43.796Z,101491.00
2023-03-20T21:06:13.586Z,101490.97
2023-03-20T21:08:45.616Z,101487.34
2023-03-20T21:11:15.892Z,101495.28
2023-03-20T21:13:48.411Z,101488.25
2023-03-20T21:16:18.231Z,101488.25
2023-03-20T21:18:48.144Z,101491.72
2023-03-20T21:21:18.610Z,101488.25
2023-03-20T21:23:48.577Z,101488.25
2023-03-20T21:26:18.755Z,101485.63
2023-03-20T21:28:51.565Z,101485.63
2023-03-20T21:31:31.193Z,101482.91
2023-03-20T21:34:01.337Z,101488.13
2023-03-20T21:36:31.767Z,101481.03
2023-03-20T21:39:08.264Z,101487.22
2023-03-20T21:41:38.730Z,101481.97
2023-03-20T21:44:17.147Z,101478.50
2023-03-20T21:58:50.734Z,101477.50
2023-03-20T22:01:42.025Z,101476.75
2023-03-20T22:16:10.811Z,101483.63
2023-03-20T22:46:45.244Z,101474.63
2023-03-20T22:49:15.918Z,101468.59
2023-03-20T22:52:05.085Z,101468.59
2023-03-20T22:54:38.314Z,101469.50
2023-03-20T22:57:08.080Z,101470.47
2023-03-20T22:59:41.032Z,101476.53
2023-03-20T23:02:13.886Z,101470.38
2023-03-20T23:04:43.875Z,101471.22
2023-03-20T23:07:16.248Z,101472.13
2023-03-20T23:09:45.994Z,101474.75
2023-03-20T23:12:15.774Z,101472.03
2023-03-20T23:14:46.418Z,101468.53
2023-03-20T23:17:16.609Z,101457.19
2023-03-20T23:19:50.482Z,101459.81
2023-03-20T23:22:26.745Z,101456.28
2023-03-20T23:24:59.857Z,101460.75
2023-03-20T23:27:32.667Z,101464.25
2023-03-20T23:30:02.404Z,101457.19
2023-03-20T23:32:32.164Z,101451.94
2023-03-20T23:35:03.114Z,101454.47
2023-03-20T23:37:35.583Z,101456.28
2023-03-20T23:40:06.100Z,101447.50
2023-03-20T23:42:36.031Z,101451.78
2023-03-20T23:45:19.676Z,101451.78
2023-03-20T23:47:51.099Z,101451.78
2023-03-20T23:50:42.619Z,101453.59
2023-03-20T23:53:20.689Z,101444.84
2023-03-20T23:55:51.778Z,101444.84
2023-03-20T23:58:22.704Z,101440.44
